sensor_id;sensor_type;location;lat;lon;timestamp;pressure;altitude;pressure_sealevel;temperature;humidity
54600;BME280;40500;51.084;16.958;2023-05-02T00:00:26;100053.94;;;11.81;100.00
54600;BME280;40500;51.084;16.958;2023-05-02T00:03:01;100054.27;;;11.82;100.00
54600;BME280;40500;51.084;16.958;2023-05-02T00:05:32;100050.61;;;11.81;100.00
54600;BME280;40500;51.084;16.958;2023-05-02T00:08:03;100052.05;;;11.80;100.00
54600;BME280;40500;51.084;16.958;2023-05-02T00:10:34;100048.56;;;11.79;100.00
54600;BME280;40500;51.084;16.958;2023-05-02T00:13:05;100047.36;;;11.78;100.00
54600;BME280;40500;51.084;16.958;2023-05-02T00:15:35;100043.88;;;11.77;100.00
54600;BME280;40500;51.084;16.958;2023-05-02T00:18:06;100043.33;;;11.78;100.00
54600;BME280;40500;51.084;16.958;2023-05-02T00:20:38;100040.27;;;11.74;100.00
54600;BME280;40500;51.084;16.958;2023-05-02T00:23:08;100037.06;;;11.70;100.00
54600;BME280;40500;51.084;16.958;2023-05-02T00:25:45;100034.72;;;11.65;100.00
54600;BME280;40500;51.084;16.958;2023-05-02T00:28:15;100036.41;;;11.60;100.00
54600;BME280;40500;51.084;16.958;2023-05-02T00:30:46;100036.86;;;11.57;100.00
54600;BME280;40500;51.084;16.958;2023-05-02T00:33:17;100031.67;;;11.54;100.00
54600;BME280;40500;51.084;16.958;2023-05-02T00:35:48;100030.67;;;11.52;100.00
54600;BME280;40500;51.084;16.958;2023-05-02T00:38:19;100029.30;;;11.51;100.00
54600;BME280;40500;51.084;16.958;2023-05-02T00:40:50;100027.44;;;11.48;100.00
54600;BME280;40500;51.084;16.958;2023-05-02T00:43:21;100030.65;;;11.45;100.00
54600;BME280;40500;51.084;16.958;2023-05-02T00:45:52;100028.26;;;11.43;100.00
54600;BME280;40500;51.084;16.958;2023-05-02T00:48:22;100025.68;;;11.41;100.00
54600;BME280;40500;51.084;16.958;2023-05-02T00:50:54;100023.48;;;11.38;100.00
54600;BME280;40500;51.084;16.958;2023-05-02T00:53:27;100022.64;;;11.36;100.00
54600;BME280;40500;51.084;16.958;2023-05-02T00:55:58;100021.65;;;11.34;100.00
54600;BME280;40500;51.084;16.958;2023-05-02T00:58:29;100020.48;;;11.32;100.00
54600;BME280;40500;51.084;16.958;2023-05-02T01:01:09;100020.89;;;11.31;100.00
54600;BME280;40500;51.084;16.958;2023-05-02T01:03:49;100025.17;;;11.27;100.00
54600;BME280;40500;51.084;16.958;2023-05-02T01:06:30;100020.63;;;11.26;100.00
54600;BME280;40500;51.084;16.958;2023-05-02T01:09:15;100023.11;;;11.25;100.00
54600;BME280;40500;51.084;16.958;2023-05-02T01:12:00;100024.50;;;11.25;100.00
54600;BME280;40500;51.084;16.958;2023-05-02T01:14:37;100025.61;;;11.23;100.00
54600;BME280;40500;51.084;16.958;2023-05-02T01:17:12;100026.35;;;11.22;100.00
54600;BME280;40500;51.084;16.958;2023-05-02T01:19:46;100020.26;;;11.20;100.00
54600;BME280;40500;51.084;16.958;2023-05-02T01:22:21;100025.92;;;11.18;100.00
54600;BME280;40500;51.084;16.958;2023-05-02T01:25:01;100025.63;;;11.15;100.00
54600;BME280;40500;51.084;16.958;2023-05-02T01:27:42;100026.33;;;11.15;100.00
54600;BME280;40500;51.084;16.958;2023-05-02T01:30:18;100031.08;;;11.15;100.00
54600;BME280;40500;51.084;16.958;2023-05-02T01:32:52;100032.67;;;11.14;100.00
54600;BME280;40500;51.084;16.958;2023-05-02T01:35:26;100040.19;;;11.14;100.00
54600;BME280;40500;51.084;16.958;2023-05-02T01:37:57;100040.86;;;11.16;100.00
54600;BME280;40500;51.084;16.958;2023-05-02T01:40:30;100042.38;;;11.19;100.00
54600;BME280;40500;51.084;16.958;2023-05-02T01:43:02;100041.80;;;11.20;100.00
54600;BME280;40500;51.084;16.958;2023-05-02T01:45:36;100039.66;;;11.22;100.00
54600;BME280;40500;51.084;16.958;2023-05-02T01:48:09;100044.30;;;11.25;100.00
54600;BME280;40500;51.084;16.958;2023-05-02T01:50:42;100041.34;;;11.25;100.00
54600;BME280;40500;51.084;16.958;2023-05-02T01:53:14;100045.89;;;11.25;100.00
54600;BME280;40500;51.084;16.958;2023-05-02T01:55:46;100044.83;;;11.25;100.00
54600;BME280;40500;51.084;16.958;2023-05-02T01:58:19;100048.65;;;11.26;100.00
54600;BME280;40500;51.084;16.958;2023-05-02T02:00:51;100046.70;;;11.28;100.00
54600;BME280;40500;51.084;16.958;2023-05-02T02:03:22;100047.01;;;11.30;100.00
54600;BME280;40500;51.084;16.958;2023-05-02T02:05:55;100046.31;;;11.30;100.00
54600;BME280;40500;51.084;16.958;2023-05-02T02:08:27;100046.38;;;11.27;100.00
54600;BME280;40500;51.084;16.958;2023-05-02T02:11:03;100046.76;;;11.26;100.00
54600;BME280;40500;51.084;16.958;2023-05-02T02:13:41;100050.25;;;11.26;100.00
54600;BME280;40500;51.084;16.958;2023-05-02T02:16:20;100058.70;;;11.25;100.00
54600;BME280;40500;51.084;16.958;2023-05-02T02:18:55;100061.89;;;11.23;100.00
54600;BME280;40500;51.084;16.958;2023-05-02T02:21:29;100064.79;;;11.20;100.00
54600;BME280;40500;51.084;16.958;2023-05-02T02:24:02;100070.18;;;11.14;100.00
54600;BME280;40500;51.084;16.958;2023-05-02T02:26:34;100070.30;;;11.08;100.00
54600;BME280;40500;51.084;16.958;2023-05-02T02:29:05;100078.60;;;11.05;100.00
54600;BME280;40500;51.084;16.958;2023-05-02T02:31:36;100088.20;;;10.99;100.00
54600;BME280;40500;51.084;16.958;2023-05-02T02:34:07;100093.75;;;10.94;100.00
54600;BME280;40500;51.084;16.958;2023-05-02T02:36:46;100092.40;;;10.92;100.00
54600;BME280;40500;51.084;16.958;2023-05-02T02:39:24;100095.23;;;10.91;100.00
54600;BME280;40500;51.084;16.958;2023-05-02T02:42:09;100095.77;;;10.90;100.00
54600;BME280;40500;51.084;16.958;2023-05-02T02:44:54;100101.02;;;10.90;100.00
54600;BME280;40500;51.084;16.958;2023-05-02T02:47:28;100100.16;;;10.90;100.00
54600;BME280;40500;51.084;16.958;2023-05-02T02:50:10;100105.90;;;10.91;100.00
54600;BME280;40500;51.084;16.958;2023-05-02T02:52:52;100107.69;;;10.90;100.00
54600;BME280;40500;51.084;16.958;2023-05-02T02:55:33;100114.14;;;10.91;100.00
54600;BME280;40500;51.084;16.958;2023-05-02T02:58:17;100113.92;;;10.93;100.00
54600;BME280;40500;51.084;16.958;2023-05-02T03:00:49;100121.05;;;10.96;100.00
54600;BME280;40500;51.084;16.958;2023-05-02T03:03:22;100118.10;;;11.02;100.00
54600;BME280;40500;51.084;16.958;2023-05-02T03:05:57;100126.56;;;11.07;100.00
54600;BME280;40500;51.084;16.958;2023-05-02T03:08:39;100127.17;;;11.12;100.00
54600;BME280;40500;51.084;16.958;2023-05-02T03:11:10;100122.67;;;11.18;100.00
54600;BME280;40500;51.084;16.958;2023-05-02T03:13:40;100123.45;;;11.21;100.00
54600;BME280;40500;51.084;16.958;2023-05-02T03:16:32;100125.61;;;11.26;100.00
54600;BME280;40500;51.084;16.958;2023-05-02T03:19:04;100120.46;;;11.29;100.00
54600;BME280;40500;51.084;16.958;2023-05-02T03:21:35;100122.85;;;11.33;100.00
54600;BME280;40500;51.084;16.958;2023-05-02T03:24:13;100123.84;;;11.35;100.00
54600;BME280;40500;51.084;16.958;2023-05-02T03:26:47;100130.11;;;11.36;100.00
54600;BME280;40500;51.084;16.958;2023-05-02T03:29:19;100130.89;;;11.41;100.00
54600;BME280;40500;51.084;16.958;2023-05-02T03:31:49;100133.23;;;11.45;100.00
54600;BME280;40500;51.084;16.958;2023-05-02T03:34:21;100131.03;;;11.49;100.00
54600;BME280;40500;51.084;16.958;2023-05-02T03:36:52;100141.30;;;11.53;100.00
54600;BME280;40500;51.084;16.958;2023-05-02T03:39:22;100142.94;;;11.57;100.00
54600;BME280;40500;51.084;16.958;2023-05-02T03:41:53;100150.75;;;11.61;100.00
54600;BME280;40500;51.084;16.958;2023-05-02T03:44:24;100155.06;;;11.64;100.00
54600;BME280;40500;51.084;16.958;2023-05-02T03:46:54;100161.84;;;11.67;100.00
54600;BME280;40500;51.084;16.958;2023-05-02T03:49:25;100165.48;;;11.68;100.00
54600;BME280;40500;51.084;16.958;2023-05-02T03:51:56;100171.42;;;11.69;100.00
54600;BME280;40500;51.084;16.958;2023-05-02T03:54:28;100171.20;;;11.71;100.00
54600;BME280;40500;51.084;16.958;2023-05-02T03:57:01;100176.05;;;11.73;100.00
54600;BME280;40500;51.084;16.958;2023-05-02T03:59:34;100178.45;;;11.76;100.00
54600;BME280;40500;51.084;16.958;2023-05-02T04:02:12;100184.38;;;11.77;100.00
54600;BME280;40500;51.084;16.958;2023-05-02T04:04:47;100188.37;;;11.79;100.00
54600;BME280;40500;51.084;16.958;2023-05-02T04:07:21;100193.77;;;11.81;100.00
54600;BME280;40500;51.084;16.958;2023-05-02T04:09:59;100195.45;;;11.84;100.00
54600;BME280;40500;51.084;16.958;2023-05-02T04:12:34;100196.81;;;11.85;100.00
54600;BME280;40500;51.084;16.958;2023-05-02T04:15:07;100205.38;;;11.87;100.00
54600;BME280;40500;51.084;16.958;2023-05-02T04:17:38;100207.13;;;11.87;100.00
54600;BME280;40500;51.084;16.958;2023-05-02T04:20:11;100210.25;;;11.89;100.00
54600;BME280;40500;51.084;16.958;2023-05-02T04:22:45;100214.81;;;11.89;100.00
54600;BME280;40500;51.084;16.958;2023-05-02T04:25:18;100220.91;;;11.92;100.00
54600;BME280;40500;51.084;16.958;2023-05-02T04:27:50;100224.08;;;11.91;100.00
54600;BME280;40500;51.084;16.958;2023-05-02T04:30:23;100231.80;;;11.92;100.00
54600;BME280;40500;51.084;16.958;2023-05-02T04:33:02;100236.16;;;11.92;100.00
54600;BME280;40500;51.084;16.958;2023-05-02T04:35:39;100243.19;;;11.92;100.00
54600;BME280;40500;51.084;16.958;2023-05-02T04:38:13;100253.33;;;11.94;100.00
54600;BME280;40500;51.084;16.958;2023-05-02T04:40:44;100255.43;;;11.94;100.00
54600;BME280;40500;51.084;16.958;2023-05-02T04:43:15;100257.52;;;11.95;100.00
54600;BME280;40500;51.084;16.958;2023-05-02T04:45:50;100259.98;;;11.94;100.00
54600;BME280;40500;51.084;16.958;2023-05-02T04:48:27;100263.84;;;11.94;100.00
54600;BME280;40500;51.084;16.958;2023-05-02T04:50:58;100266.44;;;11.96;100.00
54600;BME280;40500;51.084;16.958;2023-05-02T04:53:30;100266.73;;;11.98;100.00
54600;BME280;40500;51.084;16.958;2023-05-02T04:56:01;100266.17;;;11.99;100.00
54600;BME280;40500;51.084;16.958;2023-05-02T04:58:32;100264.58;;;12.00;100.00
54600;BME280;40500;51.084;16.958;2023-05-02T05:01:07;100263.00;;;12.00;100.00
54600;BME280;40500;51.084;16.958;2023-05-02T05:03:38;100261.95;;;12.00;100.00
54600;BME280;40500;51.084;16.958;2023-05-02T05:06:11;100264.05;;;12.00;100.00
54600;BME280;40500;51.084;16.958;2023-05-02T05:08:42;100262.13;;;12.00;100.00
54600;BME280;40500;51.084;16.958;2023-05-02T05:11:15;100264.34;;;12.03;100.00
54600;BME280;40500;51.084;16.958;2023-05-02T05:13:45;100268.84;;;12.05;100.00
54600;BME280;40500;51.084;16.958;2023-05-02T05:16:16;100267.02;;;12.08;100.00
54600;BME280;40500;51.084;16.958;2023-05-02T05:18:48;100266.41;;;12.11;100.00
54600;BME280;40500;51.084;16.958;2023-05-02T05:21:18;100269.35;;;12.13;100.00
54600;BME280;40500;51.084;16.958;2023-05-02T05:23:49;100271.76;;;12.15;100.00
54600;BME280;40500;51.084;16.958;2023-05-02T05:26:25;100276.41;;;12.19;100.00
54600;BME280;40500;51.084;16.958;2023-05-02T05:28:56;100285.14;;;12.20;100.00
54600;BME280;40500;51.084;16.958;2023-05-02T05:31:31;100292.45;;;12.23;100.00
54600;BME280;40500;51.084;16.958;2023-05-02T05:34:03;100291.67;;;12.26;100.00
54600;BME280;40500;51.084;16.958;2023-05-02T05:36:34;100291.94;;;12.30;100.00
54600;BME280;40500;51.084;16.958;2023-05-02T05:39:06;100294.28;;;12.35;100.00
54600;BME280;40500;51.084;16.958;2023-05-02T05:41:38;100294.48;;;12.41;100.00
54600;BME280;40500;51.084;16.958;2023-05-02T05:44:11;100291.52;;;12.46;100.00
54600;BME280;40500;51.084;16.958;2023-05-02T05:46:41;100298.09;;;12.51;100.00
54600;BME280;40500;51.084;16.958;2023-05-02T05:49:14;100310.55;;;12.57;100.00
54600;BME280;40500;51.084;16.958;2023-05-02T05:51:44;100314.80;;;12.63;100.00
54600;BME280;40500;51.084;16.958;2023-05-02T05:54:17;100310.25;;;12.70;100.00
54600;BME280;40500;51.084;16.958;2023-05-02T05:56:48;100318.14;;;12.78;100.00
54600;BME280;40500;51.084;16.958;2023-05-02T05:59:20;100318.16;;;12.83;100.00
54600;BME280;40500;51.084;16.958;2023-05-02T06:01:54;100321.02;;;12.88;100.00
54600;BME280;40500;51.084;16.958;2023-05-02T06:04:24;100321.77;;;12.93;100.00
54600;BME280;40500;51.084;16.958;2023-05-02T06:06:55;100325.85;;;12.97;100.00
54600;BME280;40500;51.084;16.958;2023-05-02T06:09:26;100323.23;;;13.04;100.00
54600;BME280;40500;51.084;16.958;2023-05-02T06:11:56;100323.95;;;13.10;100.00
54600;BME280;40500;51.084;16.958;2023-05-02T06:14:27;100327.98;;;13.16;100.00
54600;BME280;40500;51.084;16.958;2023-05-02T06:16:59;100332.71;;;13.23;100.00
54600;BME280;40500;51.084;16.958;2023-05-02T06:19:29;100336.09;;;13.28;100.00
54600;BME280;40500;51.084;16.958;2023-05-02T06:22:00;100340.01;;;13.34;100.00
54600;BME280;40500;51.084;16.958;2023-05-02T06:24:30;100342.90;;;13.37;100.00
54600;BME280;40500;51.084;16.958;2023-05-02T06:27:00;100346.80;;;13.42;100.00
54600;BME280;40500;51.084;16.958;2023-05-02T06:29:31;100350.18;;;13.48;100.00
54600;BME280;40500;51.084;16.958;2023-05-02T06:32:01;100353.77;;;13.51;100.00
54600;BME280;40500;51.084;16.958;2023-05-02T06:34:33;100355.69;;;13.57;100.00
54600;BME280;40500;51.084;16.958;2023-05-02T06:37:03;100356.06;;;13.63;100.00
54600;BME280;40500;51.084;16.958;2023-05-02T06:39:34;100362.05;;;13.69;100.00
54600;BME280;40500;51.084;16.958;2023-05-02T06:42:05;100368.46;;;13.78;100.00
54600;BME280;40500;51.084;16.958;2023-05-02T06:44:36;100368.39;;;13.86;100.00
54600;BME280;40500;51.084;16.958;2023-05-02T06:47:06;100369.14;;;13.96;100.00
54600;BME280;40500;51.084;16.958;2023-05-02T06:49:37;100371.61;;;14.08;100.00
54600;BME280;40500;51.084;16.958;2023-05-02T06:52:07;100376.72;;;14.19;100.00
54600;BME280;40500;51.084;16.958;2023-05-02T06:54:38;100378.45;;;14.32;100.00
54600;BME280;40500;51.084;16.958;2023-05-02T06:57:10;100380.45;;;14.41;100.00
54600;BME280;40500;51.084;16.958;2023-05-02T06:59:41;100382.55;;;14.47;100.00
54600;BME280;40500;51.084;16.958;2023-05-02T07:02:11;100383.41;;;14.53;100.00
54600;BME280;40500;51.084;16.958;2023-05-02T07:04:41;100386.99;;;14.57;100.00
54600;BME280;40500;51.084;16.958;2023-05-02T07:07:12;100387.91;;;14.61;100.00
54600;BME280;40500;51.084;16.958;2023-05-02T07:09:47;100389.25;;;14.70;100.00
54600;BME280;40500;51.084;16.958;2023-05-02T07:12:18;100393.97;;;14.81;100.00
54600;BME280;40500;51.084;16.958;2023-05-02T07:14:49;100393.95;;;14.92;100.00
54600;BME280;40500;51.084;16.958;2023-05-02T07:17:19;100395.66;;;15.04;100.00
54600;BME280;40500;51.084;16.958;2023-05-02T07:19:49;100393.90;;;15.19;100.00
54600;BME280;40500;51.084;16.958;2023-05-02T07:22:21;100392.29;;;15.30;100.00
54600;BME280;40500;51.084;16.958;2023-05-02T07:24:59;100395.34;;;15.38;100.00
54600;BME280;40500;51.084;16.958;2023-05-02T07:27:30;100393.05;;;15.48;100.00
54600;BME280;40500;51.084;16.958;2023-05-02T07:30:01;100393.40;;;15.58;100.00
54600;BME280;40500;51.084;16.958;2023-05-02T07:32:31;100397.25;;;15.63;100.00
54600;BME280;40500;51.084;16.958;2023-05-02T07:35:02;100401.01;;;15.72;100.00
54600;BME280;40500;51.084;16.958;2023-05-02T07:37:34;100402.64;;;15.81;100.00
54600;BME280;40500;51.084;16.958;2023-05-02T07:40:07;100408.33;;;15.89;100.00
54600;BME280;40500;51.084;16.958;2023-05-02T07:42:37;100409.88;;;15.95;100.00
54600;BME280;40500;51.084;16.958;2023-05-02T07:45:10;100408.17;;;16.03;100.00
54600;BME280;40500;51.084;16.958;2023-05-02T07:47:40;100411.96;;;16.10;100.00
54600;BME280;40500;51.084;16.958;2023-05-02T07:50:11;100409.06;;;16.16;100.00
54600;BME280;40500;51.084;16.958;2023-05-02T07:52:42;100407.67;;;16.24;100.00
54600;BME280;40500;51.084;16.958;2023-05-02T07:55:12;100412.55;;;16.35;100.00
54600;BME280;40500;51.084;16.958;2023-05-02T07:57:43;100413.64;;;16.44;100.00
54600;BME280;40500;51.084;16.958;2023-05-02T08:00:15;100416.05;;;16.45;100.00
54600;BME280;40500;51.084;16.958;2023-05-02T08:02:46;100417.98;;;16.55;100.00
54600;BME280;40500;51.084;16.958;2023-05-02T08:05:16;100419.17;;;16.64;100.00
54600;BME280;40500;51.084;16.958;2023-05-02T08:07:47;100425.11;;;16.70;100.00
54600;BME280;40500;51.084;16.958;2023-05-02T08:10:17;100430.64;;;16.83;100.00
54600;BME280;40500;51.084;16.958;2023-05-02T08:12:48;100433.52;;;16.90;100.00
54600;BME280;40500;51.084;16.958;2023-05-02T08:15:18;100432.45;;;16.98;100.00
54600;BME280;40500;51.084;16.958;2023-05-02T08:17:49;100429.95;;;17.04;100.00
54600;BME280;40500;51.084;16.958;2023-05-02T08:20:20;100426.88;;;17.09;100.00
54600;BME280;40500;51.084;16.958;2023-05-02T08:22:51;100431.64;;;17.10;100.00
54600;BME280;40500;51.084;16.958;2023-05-02T08:25:22;100430.52;;;17.16;100.00
54600;BME280;40500;51.084;16.958;2023-05-02T08:27:52;100431.63;;;17.23;100.00
54600;BME280;40500;51.084;16.958;2023-05-02T08:30:23;100435.80;;;17.32;100.00
54600;BME280;40500;51.084;16.958;2023-05-02T08:32:53;100433.78;;;17.43;100.00
54600;BME280;40500;51.084;16.958;2023-05-02T08:35:25;100440.49;;;17.43;100.00
54600;BME280;40500;51.084;16.958;2023-05-02T08:37:57;100445.38;;;17.41;100.00
54600;BME280;40500;51.084;16.958;2023-05-02T08:40:28;100446.36;;;17.42;100.00
54600;BME280;40500;51.084;16.958;2023-05-02T08:43:11;100445.39;;;17.48;100.00
54600;BME280;40500;51.084;16.958;2023-05-02T08:45:43;100451.02;;;17.49;100.00
54600;BME280;40500;51.084;16.958;2023-05-02T08:48:14;100449.27;;;17.48;100.00
54600;BME280;40500;51.084;16.958;2023-05-02T08:50:46;100450.48;;;17.53;100.00
54600;BME280;40500;51.084;16.958;2023-05-02T08:53:18;100453.66;;;17.57;100.00
54600;BME280;40500;51.084;16.958;2023-05-02T08:55:49;100458.34;;;17.60;100.00
54600;BME280;40500;51.084;16.958;2023-05-02T08:58:19;100457.64;;;17.59;100.00
54600;BME280;40500;51.084;16.958;2023-05-02T09:00:50;100462.61;;;17.55;100.00
54600;BME280;40500;51.084;16.958;2023-05-02T09:03:28;100464.98;;;17.54;100.00
54600;BME280;40500;51.084;16.958;2023-05-02T09:06:10;100467.36;;;17.52;100.00
54600;BME280;40500;51.084;16.958;2023-05-02T09:08:43;100468.23;;;17.56;100.00
54600;BME280;40500;51.084;16.958;2023-05-02T09:11:15;100474.86;;;17.58;100.00
54600;BME280;40500;51.084;16.958;2023-05-02T09:13:46;100480.27;;;17.60;100.00
54600;BME280;40500;51.084;16.958;2023-05-02T09:16:18;100484.41;;;17.67;100.00
54600;BME280;40500;51.084;16.958;2023-05-02T09:18:52;100483.67;;;17.67;100.00
54600;BME280;40500;51.084;16.958;2023-05-02T09:21:23;100486.47;;;17.68;100.00
54600;BME280;40500;51.084;16.958;2023-05-02T09:23:55;100487.08;;;17.71;100.00
54600;BME280;40500;51.084;16.958;2023-05-02T09:26:28;100488.21;;;17.77;100.00
54600;BME280;40500;51.084;16.958;2023-05-02T09:29:02;100493.60;;;17.80;100.00
54600;BME280;40500;51.084;16.958;2023-05-02T09:31:34;100492.95;;;17.82;100.00
54600;BME280;40500;51.084;16.958;2023-05-02T09:34:24;100499.17;;;17.86;100.00
54600;BME280;40500;51.084;16.958;2023-05-02T09:36:54;100502.50;;;17.91;100.00
54600;BME280;40500;51.084;16.958;2023-05-02T09:39:27;100504.73;;;17.93;100.00
54600;BME280;40500;51.084;16.958;2023-05-02T09:41:58;100511.86;;;17.96;100.00
54600;BME280;40500;51.084;16.958;2023-05-02T09:44:38;100510.77;;;17.96;100.00
54600;BME280;40500;51.084;16.958;2023-05-02T09:47:10;100513.90;;;18.02;100.00
54600;BME280;40500;51.084;16.958;2023-05-02T09:49:54;100512.77;;;18.11;100.00
54600;BME280;40500;51.084;16.958;2023-05-02T09:52:24;100510.84;;;18.26;100.00
54600;BME280;40500;51.084;16.958;2023-05-02T09:54:55;100511.66;;;18.31;100.00
54600;BME280;40500;51.084;16.958;2023-05-02T09:57:39;100510.87;;;18.37;100.00
54600;BME280;40500;51.084;16.958;2023-05-02T10:00:12;100516.38;;;18.41;100.00
54600;BME280;40500;51.084;16.958;2023-05-02T10:02:49;100521.91;;;18.47;100.00
54600;BME280;40500;51.084;16.958;2023-05-02T10:05:20;100525.08;;;18.44;100.00
54600;BME280;40500;51.084;16.958;2023-05-02T10:07:51;100516.92;;;18.44;100.00
54600;BME280;40500;51.084;16.958;2023-05-02T10:10:22;100522.55;;;18.53;100.00
54600;BME280;40500;51.084;16.958;2023-05-02T10:12:52;100525.45;;;18.66;100.00
54600;BME280;40500;51.084;16.958;2023-05-02T10:15:25;100527.91;;;18.74;100.00
54600;BME280;40500;51.084;16.958;2023-05-02T10:17:59;100532.81;;;18.87;100.00
54600;BME280;40500;51.084;16.958;2023-05-02T10:20:35;100530.23;;;18.93;100.00
54600;BME280;40500;51.084;16.958;2023-05-02T10:23:07;100527.45;;;18.99;100.00
54600;BME280;40500;51.084;16.958;2023-05-02T10:25:37;100526.34;;;19.11;100.00
54600;BME280;40500;51.084;16.958;2023-05-02T10:28:10;100527.63;;;19.28;100.00
54600;BME280;40500;51.084;16.958;2023-05-02T10:30:41;100530.14;;;19.39;100.00
54600;BME280;40500;51.084;16.958;2023-05-02T10:33:13;100530.86;;;19.42;100.00
54600;BME280;40500;51.084;16.958;2023-05-02T10:35:45;100533.53;;;19.52;100.00
54600;BME280;40500;51.084;16.958;2023-05-02T10:38:20;100533.63;;;19.64;100.00
54600;BME280;40500;51.084;16.958;2023-05-02T10:40:56;100533.02;;;19.62;100.00
54600;BME280;40500;51.084;16.958;2023-05-02T10:43:31;100534.70;;;19.63;100.00
54600;BME280;40500;51.084;16.958;2023-05-02T10:46:03;100536.57;;;19.65;100.00
54600;BME280;40500;51.084;16.958;2023-05-02T10:49:02;100537.86;;;19.72;100.00
54600;BME280;40500;51.084;16.958;2023-05-02T10:51:33;100538.45;;;19.78;100.00
54600;BME280;40500;51.084;16.958;2023-05-02T10:54:23;100543.08;;;19.81;100.00
54600;BME280;40500;51.084;16.958;2023-05-02T10:57:11;100542.66;;;19.82;100.00
54600;BME280;40500;51.084;16.958;2023-05-02T10:59:40;100541.50;;;19.91;100.00
54600;BME280;40500;51.084;16.958;2023-05-02T11:05:24;100540.70;;;20.09;100.00
54600;BME280;40500;51.084;16.958;2023-05-02T11:10:56;100540.65;;;20.13;100.00
54600;BME280;40500;51.084;16.958;2023-05-02T11:13:49;100546.29;;;20.08;100.00
54600;BME280;40500;51.084;16.958;2023-05-02T11:16:19;100548.52;;;20.12;100.00
54600;BME280;40500;51.084;16.958;2023-05-02T11:18:59;100550.23;;;20.21;100.00
54600;BME280;40500;51.084;16.958;2023-05-02T11:21:30;100551.79;;;20.32;100.00
54600;BME280;40500;51.084;16.958;2023-05-02T11:24:37;100551.14;;;20.37;100.00
54600;BME280;40500;51.084;16.958;2023-05-02T11:27:38;100552.52;;;20.31;100.00
54600;BME280;40500;51.084;16.958;2023-05-02T11:30:10;100556.09;;;20.34;100.00
54600;BME280;40500;51.084;16.958;2023-05-02T11:35:57;100558.80;;;20.40;100.00
54600;BME280;40500;51.084;16.958;2023-05-02T11:38:36;100560.42;;;20.39;100.00
54600;BME280;40500;51.084;16.958;2023-05-02T11:41:07;100560.45;;;20.36;100.00
54600;BME280;40500;51.084;16.958;2023-05-02T11:43:37;100563.58;;;20.37;100.00
54600;BME280;40500;51.084;16.958;2023-05-02T11:46:07;100567.85;;;20.40;100.00
54600;BME280;40500;51.084;16.958;2023-05-02T11:48:38;100569.17;;;20.45;100.00
54600;BME280;40500;51.084;16.958;2023-05-02T11:51:10;100561.89;;;20.52;100.00
54600;BME280;40500;51.084;16.958;2023-05-02T11:53:41;100562.91;;;20.56;100.00
54600;BME280;40500;51.084;16.958;2023-05-02T11:56:12;100561.48;;;20.60;100.00
54600;BME280;40500;51.084;16.958;2023-05-02T11:58:42;100565.55;;;20.67;100.00
54600;BME280;40500;51.084;16.958;2023-05-02T12:01:14;100559.89;;;20.82;100.00
54600;BME280;40500;51.084;16.958;2023-05-02T12:03:45;100562.13;;;20.93;100.00
54600;BME280;40500;51.084;16.958;2023-05-02T12:06:18;100561.00;;;21.01;100.00
54600;BME280;40500;51.084;16.958;2023-05-02T12:08:49;100557.47;;;21.19;100.00
54600;BME280;40500;51.084;16.958;2023-05-02T12:11:23;100556.85;;;21.32;100.00
54600;BME280;40500;51.084;16.958;2023-05-02T12:13:55;100556.71;;;21.53;100.00
54600;BME280;40500;51.084;16.958;2023-05-02T12:16:25;100560.27;;;21.63;100.00
54600;BME280;40500;51.084;16.958;2023-05-02T12:18:56;100560.05;;;21.60;100.00
54600;BME280;40500;51.084;16.958;2023-05-02T12:21:29;100561.49;;;21.75;100.00
54600;BME280;40500;51.084;16.958;2023-05-02T12:24:01;100562.71;;;22.02;100.00
54600;BME280;40500;51.084;16.958;2023-05-02T12:26:32;100567.15;;;22.20;100.00
54600;BME280;40500;51.084;16.958;2023-05-02T12:29:02;100569.05;;;22.44;100.00
54600;BME280;40500;51.084;16.958;2023-05-02T12:31:35;100573.18;;;22.53;97.84
54600;BME280;40500;51.084;16.958;2023-05-02T12:34:06;100574.74;;;22.50;95.44
54600;BME280;40500;51.084;16.958;2023-05-02T12:36:44;100577.81;;;22.41;96.48
54600;BME280;40500;51.084;16.958;2023-05-02T12:39:14;100590.91;;;22.16;98.22
54600;BME280;40500;51.084;16.958;2023-05-02T12:41:45;100589.88;;;21.50;100.00
54600;BME280;40500;51.084;16.958;2023-05-02T12:44:15;100588.36;;;20.75;100.00
54600;BME280;40500;51.084;16.958;2023-05-02T12:46:59;100591.48;;;19.97;100.00
54600;BME280;40500;51.084;16.958;2023-05-02T12:49:30;100597.25;;;19.24;100.00
54600;BME280;40500;51.084;16.958;2023-05-02T12:52:00;100602.54;;;18.83;100.00
54600;BME280;40500;51.084;16.958;2023-05-02T12:54:31;100611.07;;;18.64;100.00
54600;BME280;40500;51.084;16.958;2023-05-02T12:57:01;100612.42;;;18.53;100.00
54600;BME280;40500;51.084;16.958;2023-05-02T12:59:32;100614.31;;;18.51;100.00
54600;BME280;40500;51.084;16.958;2023-05-02T13:02:03;100612.90;;;18.58;100.00
54600;BME280;40500;51.084;16.958;2023-05-02T13:04:38;100610.52;;;19.10;100.00
54600;BME280;40500;51.084;16.958;2023-05-02T13:07:09;100609.20;;;19.88;100.00
54600;BME280;40500;51.084;16.958;2023-05-02T13:09:40;100609.11;;;20.41;100.00